sensor_id;sensor_type;location;lat;lon;timestamp;pressure;altitude;pressure_sealevel;temperature;humidity
43039;BME280;62252;50.668;19.530;2022-11-15T00:02:23;98416.19;;;2.54;100.00
43039;BME280;62252;50.668;19.530;2022-11-15T00:05:15;98426.72;;;2.48;100.00
43039;BME280;62252;50.668;19.530;2022-11-15T00:08:07;98406.25;;;2.36;100.00
43039;BME280;62252;50.668;19.530;2022-11-15T00:11:03;98405.88;;;2.18;100.00
43039;BME280;62252;50.668;19.530;2022-11-15T00:13:55;98409.13;;;2.26;100.00
43039;BME280;62252;50.668;19.530;2022-11-15T00:16:48;98399.28;;;2.03;100.00
43039;BME280;62252;50.668;19.530;2022-11-15T00:19:39;98409.44;;;2.14;100.00
43039;BME280;62252;50.668;19.530;2022-11-15T00:22:32;98400.72;;;2.16;100.00
43039;BME280;62252;50.668;19.530;2022-11-15T00:25:26;98405.53;;;2.31;100.00
43039;BME280;62252;50.668;19.530;2022-11-15T00:28:21;98399.81;;;2.17;100.00
43039;BME280;62252;50.668;19.530;2022-11-15T00:31:13;98403.03;;;2.27;100.00
43039;BME280;62252;50.668;19.530;2022-11-15T00:34:05;98410.59;;;2.37;100.00
43039;BME280;62252;50.668;19.530;2022-11-15T00:36:57;98398.88;;;2.20;100.00
43039;BME280;62252;50.668;19.530;2022-11-15T00:39:48;98397.50;;;2.40;100.00
43039;BME280;62252;50.668;19.530;2022-11-15T00:42:40;98390.00;;;2.30;100.00
43039;BME280;62252;50.668;19.530;2022-11-15T00:45:38;98387.31;;;2.34;100.00
43039;BME280;62252;50.668;19.530;2022-11-15T00:48:30;98383.28;;;2.21;100.00
43039;BME280;62252;50.668;19.530;2022-11-15T00:51:21;98385.13;;;2.18;100.00
43039;BME280;62252;50.668;19.530;2022-11-15T00:54:13;98383.41;;;2.17;100.00
43039;BME280;62252;50.668;19.530;2022-11-15T00:57:05;98384.19;;;2.20;100.00
43039;BME280;62252;50.668;19.530;2022-11-15T00:59:57;98383.56;;;2.11;100.00
43039;BME280;62252;50.668;19.530;2022-11-15T01:02:54;98374.16;;;2.07;100.00
43039;BME280;62252;50.668;19.530;2022-11-15T01:05:45;98376.78;;;2.05;100.00
43039;BME280;62252;50.668;19.530;2022-11-15T01:08:38;98376.75;;;2.07;100.00
43039;BME280;62252;50.668;19.530;2022-11-15T01:11:30;98370.28;;;1.88;100.00
43039;BME280;62252;50.668;19.530;2022-11-15T01:14:21;98365.53;;;1.70;100.00
43039;BME280;62252;50.668;19.530;2022-11-15T01:17:14;98368.00;;;1.74;100.00
43039;BME280;62252;50.668;19.530;2022-11-15T01:20:09;98357.75;;;1.70;100.00
43039;BME280;62252;50.668;19.530;2022-11-15T01:23:01;98364.78;;;1.63;100.00
43039;BME280;62252;50.668;19.530;2022-11-15T01:25:58;98359.31;;;1.77;100.00
43039;BME280;62252;50.668;19.530;2022-11-15T01:28:50;98352.56;;;1.70;100.00
43039;BME280;62252;50.668;19.530;2022-11-15T01:31:42;98353.81;;;1.52;100.00
43039;BME280;62252;50.668;19.530;2022-11-15T01:34:34;98352.75;;;1.22;100.00
43039;BME280;62252;50.668;19.530;2022-11-15T01:37:28;98342.91;;;1.38;100.00
43039;BME280;62252;50.668;19.530;2022-11-15T01:40:19;98341.78;;;1.10;100.00
43039;BME280;62252;50.668;19.530;2022-11-15T01:43:24;98331.16;;;1.22;100.00
43039;BME280;62252;50.668;19.530;2022-11-15T01:46:23;98330.88;;;0.94;100.00
43039;BME280;62252;50.668;19.530;2022-11-15T01:49:21;98328.06;;;1.06;100.00
43039;BME280;62252;50.668;19.530;2022-11-15T01:52:18;98310.38;;;1.25;100.00
43039;BME280;62252;50.668;19.530;2022-11-15T01:55:17;98320.47;;;1.37;100.00
43039;BME280;62252;50.668;19.530;2022-11-15T01:58:10;98316.47;;;1.22;100.00
43039;BME280;62252;50.668;19.530;2022-11-15T02:01:01;98308.94;;;1.12;100.00
43039;BME280;62252;50.668;19.530;2022-11-15T02:03:58;98301.13;;;1.13;100.00
43039;BME280;62252;50.668;19.530;2022-11-15T02:06:51;98309.06;;;1.06;100.00
43039;BME280;62252;50.668;19.530;2022-11-15T02:09:44;98301.00;;;0.78;100.00
43039;BME280;62252;50.668;19.530;2022-11-15T02:12:40;98287.69;;;0.96;100.00
43039;BME280;62252;50.668;19.530;2022-11-15T02:15:37;98279.88;;;0.99;100.00
43039;BME280;62252;50.668;19.530;2022-11-15T02:18:35;98285.25;;;0.89;100.00
43039;BME280;62252;50.668;19.530;2022-11-15T02:21:35;98283.56;;;0.88;100.00
43039;BME280;62252;50.668;19.530;2022-11-15T02:24:57;98284.13;;;0.61;100.00
43039;BME280;62252;50.668;19.530;2022-11-15T02:28:11;98273.88;;;0.96;100.00
43039;BME280;62252;50.668;19.530;2022-11-15T02:31:13;98272.94;;;0.59;100.00
43039;BME280;62252;50.668;19.530;2022-11-15T02:34:16;98278.38;;;0.88;100.00
43039;BME280;62252;50.668;19.530;2022-11-15T02:37:17;98270.84;;;0.77;100.00
43039;BME280;62252;50.668;19.530;2022-11-15T02:40:15;98271.19;;;0.61;100.00
43039;BME280;62252;50.668;19.530;2022-11-15T02:43:14;98265.19;;;0.59;100.00
43039;BME280;62252;50.668;19.530;2022-11-15T02:46:28;98269.44;;;0.61;100.00
43039;BME280;62252;50.668;19.530;2022-11-15T02:49:34;98257.06;;;0.34;100.00
43039;BME280;62252;50.668;19.530;2022-11-15T02:52:27;98246.19;;;0.60;100.00
43039;BME280;62252;50.668;19.530;2022-11-15T02:55:29;98241.75;;;0.66;100.00
43039;BME280;62252;50.668;19.530;2022-11-15T03:02:00;98236.25;;;0.40;100.00
43039;BME280;62252;50.668;19.530;2022-11-15T03:04:58;98241.19;;;0.51;100.00
43039;BME280;62252;50.668;19.530;2022-11-15T03:07:59;98232.50;;;0.55;100.00
43039;BME280;62252;50.668;19.530;2022-11-15T03:10:59;98229.97;;;0.52;100.00
43039;BME280;62252;50.668;19.530;2022-11-15T03:14:00;98222.31;;;0.47;100.00
43039;BME280;62252;50.668;19.530;2022-11-15T03:17:03;98223.19;;;0.45;100.00
43039;BME280;62252;50.668;19.530;2022-11-15T03:20:02;98226.78;;;0.38;100.00
43039;BME280;62252;50.668;19.530;2022-11-15T03:22:59;98213.81;;;0.41;100.00
43039;BME280;62252;50.668;19.530;2022-11-15T03:25:51;98216.69;;;0.26;100.00
43039;BME280;62252;50.668;19.530;2022-11-15T03:28:49;98215.69;;;0.33;100.00
43039;BME280;62252;50.668;19.530;2022-11-15T03:31:44;98212.66;;;0.13;100.00
43039;BME280;62252;50.668;19.530;2022-11-15T03:34:43;98209.41;;;0.02;100.00
43039;BME280;62252;50.668;19.530;2022-11-15T03:37:38;98200.00;;;0.42;100.00
43039;BME280;62252;50.668;19.530;2022-11-15T03:40:36;98198.66;;;0.21;100.00
43039;BME280;62252;50.668;19.530;2022-11-15T03:43:35;98196.63;;;0.38;100.00
43039;BME280;62252;50.668;19.530;2022-11-15T03:46:32;98184.22;;;0.13;100.00
43039;BME280;62252;50.668;19.530;2022-11-15T03:49:29;98185.84;;;0.18;100.00
43039;BME280;62252;50.668;19.530;2022-11-15T03:52:25;98183.06;;;0.26;100.00
43039;BME280;62252;50.668;19.530;2022-11-15T03:55:19;98170.22;;;0.21;100.00
43039;BME280;62252;50.668;19.530;2022-11-15T03:58:11;98169.84;;;-0.02;100.00
43039;BME280;62252;50.668;19.530;2022-11-15T04:01:03;98169.81;;;-0.00;100.00
43039;BME280;62252;50.668;19.530;2022-11-15T04:03:54;98168.13;;;-0.03;100.00
43039;BME280;62252;50.668;19.530;2022-11-15T04:06:46;98166.84;;;-0.26;100.00
43039;BME280;62252;50.668;19.530;2022-11-15T04:09:40;98158.97;;;-0.19;100.00
43039;BME280;62252;50.668;19.530;2022-11-15T04:12:45;98151.06;;;-0.11;100.00
43039;BME280;62252;50.668;19.530;2022-11-15T04:15:37;98159.72;;;-0.12;100.00
43039;BME280;62252;50.668;19.530;2022-11-15T04:18:28;98159.44;;;0.01;100.00
43039;BME280;62252;50.668;19.530;2022-11-15T04:21:20;98148.34;;;-0.04;100.00
43039;BME280;62252;50.668;19.530;2022-11-15T04:24:26;98157.81;;;-0.03;100.00
43039;BME280;62252;50.668;19.530;2022-11-15T04:27:20;98158.22;;;-0.25;100.00
43039;BME280;62252;50.668;19.530;2022-11-15T04:30:12;98153.91;;;-0.25;100.00
43039;BME280;62252;50.668;19.530;2022-11-15T04:33:03;98146.09;;;-0.20;100.00
43039;BME280;62252;50.668;19.530;2022-11-15T04:35:58;98155.47;;;-0.15;100.00
43039;BME280;62252;50.668;19.530;2022-11-15T04:39:02;98158.38;;;-0.33;100.00
43039;BME280;62252;50.668;19.530;2022-11-15T04:41:53;98151.06;;;-0.11;100.00
43039;BME280;62252;50.668;19.530;2022-11-15T04:44:48;98154.59;;;-0.15;100.00
43039;BME280;62252;50.668;19.530;2022-11-15T04:47:42;98148.78;;;-0.26;100.00
43039;BME280;62252;50.668;19.530;2022-11-15T04:50:34;98153.69;;;-0.13;100.00
43039;BME280;62252;50.668;19.530;2022-11-15T04:53:26;98147.91;;;-0.27;100.00
43039;BME280;62252;50.668;19.530;2022-11-15T04:56:17;98143.59;;;-0.25;100.00
43039;BME280;62252;50.668;19.530;2022-11-15T04:59:09;98144.97;;;-0.09;100.00
43039;BME280;62252;50.668;19.530;2022-11-15T05:02:03;98160.44;;;-0.06;100.00
43039;BME280;62252;50.668;19.530;2022-11-15T05:04:55;98153.72;;;-0.16;100.00
43039;BME280;62252;50.668;19.530;2022-11-15T05:07:44;98150.00;;;0.00;100.00
43039;BME280;62252;50.668;19.530;2022-11-15T05:10:36;98146.06;;;-0.19;100.00
43039;BME280;62252;50.668;19.530;2022-11-15T05:13:28;98141.63;;;-0.12;100.00
43039;BME280;62252;50.668;19.530;2022-11-15T05:16:19;98128.91;;;-0.23;100.00
43039;BME280;62252;50.668;19.530;2022-11-15T05:19:13;98127.25;;;-0.27;100.00
43039;BME280;62252;50.668;19.530;2022-11-15T05:22:05;98136.09;;;-0.38;100.00
43039;BME280;62252;50.668;19.530;2022-11-15T05:24:56;98129.47;;;-0.09;100.00
43039;BME280;62252;50.668;19.530;2022-11-15T05:27:48;98130.03;;;-0.37;100.00
43039;BME280;62252;50.668;19.530;2022-11-15T05:30:40;98131.50;;;-0.23;100.00
43039;BME280;62252;50.668;19.530;2022-11-15T05:33:33;98127.09;;;-0.19;100.00
43039;BME280;62252;50.668;19.530;2022-11-15T05:36:33;98126.66;;;-0.39;100.00
43039;BME280;62252;50.668;19.530;2022-11-15T05:39:26;98134.47;;;-0.44;100.00
43039;BME280;62252;50.668;19.530;2022-11-15T05:42:18;98130.63;;;-0.23;100.00
43039;BME280;62252;50.668;19.530;2022-11-15T05:45:09;98134.25;;;-0.33;100.00
43039;BME280;62252;50.668;19.530;2022-11-15T05:48:06;98130.28;;;-0.51;100.00
43039;BME280;62252;50.668;19.530;2022-11-15T05:50:59;98120.75;;;-0.47;100.00
43039;BME280;62252;50.668;19.530;2022-11-15T05:53:57;98132.31;;;-0.21;100.00
43039;BME280;62252;50.668;19.530;2022-11-15T05:56:49;98130.69;;;-0.26;100.00
43039;BME280;62252;50.668;19.530;2022-11-15T05:59:42;98134.50;;;-0.01;100.00
43039;BME280;62252;50.668;19.530;2022-11-15T06:02:36;98130.84;;;-0.34;100.00
43039;BME280;62252;50.668;19.530;2022-11-15T06:05:28;98135.78;;;-0.22;100.00
43039;BME280;62252;50.668;19.530;2022-11-15T06:08:20;98121.66;;;-0.04;100.00
43039;BME280;62252;50.668;19.530;2022-11-15T06:11:14;98130.66;;;-0.25;100.00
43039;BME280;62252;50.668;19.530;2022-11-15T06:14:06;98133.25;;;-0.25;100.00
43039;BME280;62252;50.668;19.530;2022-11-15T06:16:58;98148.41;;;-0.07;100.00
43039;BME280;62252;50.668;19.530;2022-11-15T06:19:50;98141.66;;;-0.14;100.00
43039;BME280;62252;50.668;19.530;2022-11-15T06:22:42;98137.19;;;-0.07;100.00
43039;BME280;62252;50.668;19.530;2022-11-15T06:25:33;98141.44;;;-0.05;100.00
43039;BME280;62252;50.668;19.530;2022-11-15T06:28:28;98142.41;;;-0.09;100.00
43039;BME280;62252;50.668;19.530;2022-11-15T06:31:20;98140.69;;;-0.08;100.00
43039;BME280;62252;50.668;19.530;2022-11-15T06:34:12;98133.94;;;-0.17;100.00
43039;BME280;62252;50.668;19.530;2022-11-15T06:37:03;98137.56;;;-0.25;100.00
43039;BME280;62252;50.668;19.530;2022-11-15T06:39:55;98144.84;;;-0.01;100.00
43039;BME280;62252;50.668;19.530;2022-11-15T06:42:47;98144.69;;;0.06;100.00
43039;BME280;62252;50.668;19.530;2022-11-15T06:45:44;98148.06;;;0.10;100.00
43039;BME280;62252;50.668;19.530;2022-11-15T06:48:36;98137.50;;;0.20;100.00
43039;BME280;62252;50.668;19.530;2022-11-15T06:51:29;98141.69;;;-0.17;100.00
43039;BME280;62252;50.668;19.530;2022-11-15T06:54:20;98138.94;;;-0.06;100.00
43039;BME280;62252;50.668;19.530;2022-11-15T06:57:12;98141.66;;;-0.14;100.00
43039;BME280;62252;50.668;19.530;2022-11-15T07:00:05;98139.13;;;-0.18;100.00
43039;BME280;62252;50.668;19.530;2022-11-15T07:03:02;98141.03;;;-0.26;100.00
43039;BME280;62252;50.668;19.530;2022-11-15T07:05:55;98132.69;;;0.02;100.00
43039;BME280;62252;50.668;19.530;2022-11-15T07:08:47;98129.59;;;-0.13;100.00
43039;BME280;62252;50.668;19.530;2022-11-15T07:11:39;98142.25;;;-0.01;100.00
43039;BME280;62252;50.668;19.530;2022-11-15T07:14:31;98143.03;;;0.02;100.00
43039;BME280;62252;50.668;19.530;2022-11-15T07:17:23;98139.50;;;0.08;100.00
43039;BME280;62252;50.668;19.530;2022-11-15T07:20:17;98139.63;;;0.02;100.00
43039;BME280;62252;50.668;19.530;2022-11-15T07:23:09;98135.22;;;0.05;100.00
43039;BME280;62252;50.668;19.530;2022-11-15T07:26:01;98134.19;;;0.15;100.00
43039;BME280;62252;50.668;19.530;2022-11-15T07:28:52;98135.38;;;-0.01;100.00
43039;BME280;62252;50.668;19.530;2022-11-15T07:31:47;98124.97;;;0.01;100.00
43039;BME280;62252;50.668;19.530;2022-11-15T07:34:39;98120.13;;;0.27;100.00
43039;BME280;62252;50.668;19.530;2022-11-15T07:37:33;98122.63;;;0.31;100.00
43039;BME280;62252;50.668;19.530;2022-11-15T07:40:25;98126.78;;;0.38;100.00
43039;BME280;62252;50.668;19.530;2022-11-15T07:43:17;98123.34;;;0.38;100.00
43039;BME280;62252;50.668;19.530;2022-11-15T07:46:09;98124.19;;;0.38;100.00
43039;BME280;62252;50.668;19.530;2022-11-15T07:49:00;98128.03;;;0.60;100.00
43039;BME280;62252;50.668;19.530;2022-11-15T07:51:54;98132.66;;;0.84;100.00
43039;BME280;62252;50.668;19.530;2022-11-15T07:54:49;98126.72;;;0.79;100.00
43039;BME280;62252;50.668;19.530;2022-11-15T07:57:41;98128.25;;;0.88;100.00
43039;BME280;62252;50.668;19.530;2022-11-15T08:00:33;98113.38;;;0.96;100.00
43039;BME280;62252;50.668;19.530;2022-11-15T08:03:25;98104.88;;;0.91;100.00
43039;BME280;62252;50.668;19.530;2022-11-15T08:06:16;98119.72;;;1.19;100.00
43039;BME280;62252;50.668;19.530;2022-11-15T08:09:09;98113.56;;;1.23;100.00
43039;BME280;62252;50.668;19.530;2022-11-15T08:12:04;98105.34;;;1.41;100.00
43039;BME280;62252;50.668;19.530;2022-11-15T08:14:55;98104.44;;;1.42;100.00
43039;BME280;62252;50.668;19.530;2022-11-15T08:17:54;98098.19;;;1.49;100.00
43039;BME280;62252;50.668;19.530;2022-11-15T08:20:45;98099.94;;;1.50;100.00
43039;BME280;62252;50.668;19.530;2022-11-15T08:23:37;98096.47;;;1.50;100.00
43039;BME280;62252;50.668;19.530;2022-11-15T08:26:29;98087.44;;;1.64;100.00
43039;BME280;62252;50.668;19.530;2022-11-15T08:29:23;98084.69;;;1.71;100.00
43039;BME280;62252;50.668;19.530;2022-11-15T08:32:15;98083.03;;;1.68;100.00
43039;BME280;62252;50.668;19.530;2022-11-15T08:35:07;98075.84;;;1.78;100.00
43039;BME280;62252;50.668;19.530;2022-11-15T08:37:59;98065.84;;;1.95;100.00
43039;BME280;62252;50.668;19.530;2022-11-15T08:40:51;98072.91;;;1.90;100.00
43039;BME280;62252;50.668;19.530;2022-11-15T08:43:43;98072.66;;;1.99;100.00
43039;BME280;62252;50.668;19.530;2022-11-15T08:46:38;98070.50;;;2.13;100.00
43039;BME280;62252;50.668;19.530;2022-11-15T08:49:30;98071.09;;;2.22;100.00
43039;BME280;62252;50.668;19.530;2022-11-15T08:52:21;98073.56;;;2.27;100.00
43039;BME280;62252;50.668;19.530;2022-11-15T08:55:13;98076.28;;;2.22;100.00
43039;BME280;62252;50.668;19.530;2022-11-15T08:58:05;98085.34;;;2.08;100.00
43039;BME280;62252;50.668;19.530;2022-11-15T09:00:56;98083.34;;;2.17;100.00
43039;BME280;62252;50.668;19.530;2022-11-15T09:03:51;98073.38;;;2.33;100.00
43039;BME280;62252;50.668;19.530;2022-11-15T09:06:42;98070.03;;;2.57;100.00
43039;BME280;62252;50.668;19.530;2022-11-15T09:09:34;98070.41;;;2.72;100.00
43039;BME280;62252;50.668;19.530;2022-11-15T09:12:26;98058.94;;;2.79;100.00
43039;BME280;62252;50.668;19.530;2022-11-15T09:15:20;98060.94;;;2.97;100.00
43039;BME280;62252;50.668;19.530;2022-11-15T09:18:12;98059.41;;;3.18;100.00
43039;BME280;62252;50.668;19.530;2022-11-15T09:21:10;98047.22;;;3.44;100.00
43039;BME280;62252;50.668;19.530;2022-11-15T09:24:01;98038.47;;;3.47;100.00
43039;BME280;62252;50.668;19.530;2022-11-15T09:26:56;98032.78;;;3.60;100.00
43039;BME280;62252;50.668;19.530;2022-11-15T09:29:49;98026.28;;;3.96;100.00
43039;BME280;62252;50.668;19.530;2022-11-15T09:32:43;98023.28;;;4.73;100.00
43039;BME280;62252;50.668;19.530;2022-11-15T09:35:35;98021.50;;;5.37;100.00
43039;BME280;62252;50.668;19.530;2022-11-15T09:38:30;98008.97;;;5.45;100.00
43039;BME280;62252;50.668;19.530;2022-11-15T09:41:37;98014.50;;;5.57;100.00
43039;BME280;62252;50.668;19.530;2022-11-15T09:44:41;98010.44;;;5.70;100.00
43039;BME280;62252;50.668;19.530;2022-11-15T09:47:46;98008.09;;;6.03;100.00
43039;BME280;62252;50.668;19.530;2022-11-15T09:50:44;97995.50;;;5.74;100.00
43039;BME280;62252;50.668;19.530;2022-11-15T09:53:25;97997.00;;;5.98;100.00
43039;BME280;62252;50.668;19.530;2022-11-15T09:56:05;97997.22;;;6.12;100.00
43039;BME280;62252;50.668;19.530;2022-11-15T09:58:54;97989.94;;;6.38;100.00
43039;BME280;62252;50.668;19.530;2022-11-15T10:01:41;97986.81;;;6.30;100.00
43039;BME280;62252;50.668;19.530;2022-11-15T10:04:16;97998.13;;;5.92;100.00
43039;BME280;62252;50.668;19.530;2022-11-15T10:06:54;97981.16;;;6.39;100.00
43039;BME280;62252;50.668;19.530;2022-11-15T10:09:31;97986.66;;;6.33;100.00
43039;BME280;62252;50.668;19.530;2022-11-15T10:12:13;97987.19;;;6.41;100.00
43039;BME280;62252;50.668;19.530;2022-11-15T10:14:49;97986.50;;;6.55;100.00
43039;BME280;62252;50.668;19.530;2022-11-15T10:17:35;97970.19;;;6.85;100.00
43039;BME280;62252;50.668;19.530;2022-11-15T10:20:19;97970.78;;;6.56;100.00
43039;BME280;62252;50.668;19.530;2022-11-15T10:22:55;97954.44;;;7.04;100.00
43039;BME280;62252;50.668;19.530;2022-11-15T10:25:31;97955.41;;;6.67;100.00
43039;BME280;62252;50.668;19.530;2022-11-15T10:28:14;97947.44;;;6.87;100.00
43039;BME280;62252;50.668;19.530;2022-11-15T10:30:49;97948.59;;;6.99;100.00
43039;BME280;62252;50.668;19.530;2022-11-15T10:33:36;97941.06;;;6.93;100.00
43039;BME280;62252;50.668;19.530;2022-11-15T10:36:21;97938.81;;;6.85;100.00
43039;BME280;62252;50.668;19.530;2022-11-15T10:38:56;97928.28;;;6.70;100.00
43039;BME280;62252;50.668;19.530;2022-11-15T10:41:32;97931.72;;;6.70;100.00
43039;BME280;62252;50.668;19.530;2022-11-15T10:44:25;97925.38;;;6.93;100.00
43039;BME280;62252;50.668;19.530;2022-11-15T10:47:22;97926.59;;;6.86;100.00
43039;BME280;62252;50.668;19.530;2022-11-15T10:50:03;97919.94;;;6.97;100.00
43039;BME280;62252;50.668;19.530;2022-11-15T10:52:36;97917.91;;;6.85;100.00
43039;BME280;62252;50.668;19.530;2022-11-15T10:55:25;97912.53;;;7.05;100.00
43039;BME280;62252;50.668;19.530;2022-11-15T10:58:03;97907.75;;;7.30;100.00
43039;BME280;62252;50.668;19.530;2022-11-15T11:00:40;97910.22;;;7.33;100.00
43039;BME280;62252;50.668;19.530;2022-11-15T11:03:29;97895.91;;;7.56;100.00
43039;BME280;62252;50.668;19.530;2022-11-15T11:06:06;97896.56;;;7.27;100.00
43039;BME280;62252;50.668;19.530;2022-11-15T11:08:40;97895.56;;;7.29;100.00
43039;BME280;62252;50.668;19.530;2022-11-15T11:11:27;97892.19;;;7.27;100.00
43039;BME280;62252;50.668;19.530;2022-11-15T11:14:25;97891.22;;;7.78;100.00
43039;BME280;62252;50.668;19.530;2022-11-15T11:17:06;97888.47;;;7.48;100.00
43039;BME280;62252;50.668;19.530;2022-11-15T11:19:56;97890.16;;;7.49;100.00
43039;BME280;62252;50.668;19.530;2022-11-15T11:22:39;97878.19;;;7.76;100.00
43039;BME280;62252;50.668;19.530;2022-11-15T11:25:22;97876.19;;;7.66;100.00
43039;BME280;62252;50.668;19.530;2022-11-15T11:28:23;97880.47;;;7.67;100.00
43039;BME280;62252;50.668;19.530;2022-11-15T11:31:08;97876.13;;;7.50;100.00
43039;BME280;62252;50.668;19.530;2022-11-15T11:33:57;97869.66;;;7.57;100.00
43039;BME280;62252;50.668;19.530;2022-11-15T11:36:39;97870.78;;;7.69;100.00
43039;BME280;62252;50.668;19.530;2022-11-15T11:39:24;97872.19;;;7.59;100.00
43039;BME280;62252;50.668;19.530;2022-11-15T11:42:04;97867.59;;;8.10;100.00
43039;BME280;62252;50.668;19.530;2022-11-15T11:44:49;97859.47;;;7.84;100.00
43039;BME280;62252;50.668;19.530;2022-11-15T11:47:31;97853.53;;;7.80;100.00
43039;BME280;62252;50.668;19.530;2022-11-15T11:50:13;97864.41;;;8.21;100.00
43039;BME280;62252;50.668;19.530;2022-11-15T11:53:05;97859.41;;;8.16;100.00
43039;BME280;62252;50.668;19.530;2022-11-15T11:56:13;97861.63;;;8.08;100.00
43039;BME280;62252;50.668;19.530;2022-11-15T11:58:48;97849.66;;;8.34;100.00
43039;BME280;62252;50.668;19.530;2022-11-15T12:01:25;97844.97;;;8.09;100.00
43039;BME280;62252;50.668;19.530;2022-11-15T12:04:03;97831.69;;;8.12;100.00
43039;BME280;62252;50.668;19.530;2022-11-15T12:06:48;97839.03;;;7.90;100.00
43039;BME280;62252;50.668;19.530;2022-11-15T12:09:27;97843.66;;;8.01;100.00
43039;BME280;62252;50.668;19.530;2022-11-15T12:12:09;97837.50;;;8.02;100.00
43039;BME280;62252;50.668;19.530;2022-11-15T12:14:48;97845.28;;;8.03;100.00
43039;BME280;62252;50.668;19.530;2022-11-15T12:17:23;97831.19;;;7.90;100.00
43039;BME280;62252;50.668;19.530;2022-11-15T12:19:58;97830.06;;;7.94;100.00
43039;BME280;62252;50.668;19.530;2022-11-15T12:22:40;97826.53;;;7.95;100.00
43039;BME280;62252;50.668;19.530;2022-11-15T12:25:19;97824.91;;;7.93;100.00
43039;BME280;62252;50.668;19.530;2022-11-15T12:27:58;97810.50;;;8.17;100.00
43039;BME280;62252;50.668;19.530;2022-11-15T12:30:43;97809.16;;;8.39;100.00
43039;BME280;62252;50.668;19.530;2022-11-15T12:33:34;97811.34;;;8.02;100.00
43039;BME280;62252;50.668;19.530;2022-11-15T12:36:10;97815.06;;;7.98;100.00
43039;BME280;62252;50.668;19.530;2022-11-15T12:38:55;97808.69;;;8.17;100.00
43039;BME280;62252;50.668;19.530;2022-11-15T12:41:30;97800.25;;;8.28;100.00
43039;BME280;62252;50.668;19.530;2022-11-15T12:44:04;97804.53;;;8.45;100.00
43039;BME280;62252;50.668;19.530;2022-11-15T12:47:00;97799.72;;;8.37;100.00
43039;BME280;62252;50.668;19.530;2022-11-15T12:49:43;97798.47;;;8.28;100.00
43039;BME280;62252;50.668;19.530;2022-11-15T12:52:17;97793.53;;;8.08;100.00
43039;BME280;62252;50.668;19.530;2022-11-15T12:55:30;97790.09;;;8.38;100.00
43039;BME280;62252;50.668;19.530;2022-11-15T12:58:26;97785.56;;;8.69;100.00
43039;BME280;62252;50.668;19.530;2022-11-15T13:00:59;97776.91;;;8.53;100.00
43039;BME280;62252;50.668;19.530;2022-11-15T13:03:34;97774.94;;;8.43;100.00
43039;BME280;62252;50.668;19.530;2022-11-15T13:06:34;97771.00;;;8.50;100.00
43039;BME280;62252;50.668;19.530;2022-11-15T13:12:49;97762.22;;;8.51;100.00
43039;BME280;62252;50.668;19.530;2022-11-15T13:15:37;97762.50;;;8.60;100.00
43039;BME280;62252;50.668;19.530;2022-11-15T13:18:35;97760.31;;;8.68;100.00
43039;BME280;62252;50.668;19.530;2022-11-15T13:21:21;97762.81;;;8.70;100.00
43039;BME280;62252;50.668;19.530;2022-11-15T13:24:15;97770.97;;;8.65;100.00
43039;BME280;62252;50.668;19.530;2022-11-15T13:26:49;97773.06;;;8.45;100.00
43039;BME280;62252;50.668;19.530;2022-11-15T13:29:25;97771.50;;;8.56;100.00
43039;BME280;62252;50.668;19.530;2022-11-15T13:31:58;97762.00;;;8.39;100.00
43039;BME280;62252;50.668;19.530;2022-11-15T13:34:33;97768.25;;;8.67;100.00
43039;BME280;62252;50.668;19.530;2022-11-15T13:37:12;97761.78;;;8.28;100.00
43039;BME280;62252;50.668;19.530;2022-11-15T13:40:18;97764.34;;;8.44;100.00
43039;BME280;62252;50.668;19.530;2022-11-15T13:42:55;97765.91;;;8.32;100.00
43039;BME280;62252;50.668;19.530;2022-11-15T13:45:31;97763.91;;;8.22;100.00
43039;BME280;62252;50.668;19.530;2022-11-15T13:48:04;97757.09;;;8.19;100.00
43039;BME280;62252;50.668;19.530;2022-11-15T13:50:41;97753.56;;;8.34;100.00
43039;BME280;62252;50.668;19.530;2022-11-15T13:53:14;97760.06;;;8.13;100.00
43039;BME280;62252;50.668;19.530;2022-11-15T13:55:48;97757.19;;;8.18;100.00
43039;BME280;62252;50.668;19.530;2022-11-15T13:58:21;97745.53;;;8.08;100.00
43039;BME280;62252;50.668;19.530;2022-11-15T14:01:02;97749.31;;;8.02;100.00
43039;BME280;62252;50.668;19.530;2022-11-15T14:03:50;97747.31;;;8.07;100.00
43039;BME280;62252;50.668;19.530;2022-11-15T14:06:26;97737.75;;;8.06;100.00
43039;BME280;62252;50.668;19.530;2022-11-15T14:09:24;97737.78;;;7.91;100.00
43039;BME280;62252;50.668;19.530;2022-11-15T14:11:59;97736.63;;;7.81;100.00
43039;BME280;62252;50.668;19.530;2022-11-15T14:14:33;97740.91;;;7.66;100.00
43039;BME280;62252;50.668;19.530;2022-11-15T14:17:34;97742.63;;;7.52;100.00
43039;BME280;62252;50.668;19.530;2022-11-15T14:20:26;97734.88;;;7.50;100.00
43039;BME280;62252;50.668;19.530;2022-11-15T14:23:01;97732.00;;;7.55;100.00
43039;BME280;62252;50.668;19.530;2022-11-15T14:25:35;97729.72;;;7.94;100.00
43039;BME280;62252;50.668;19.530;2022-11-15T14:28:15;97726.69;;;8.01;100.00
43039;BME280;62252;50.668;19.530;2022-11-15T14:30:49;97724.25;;;7.83;100.00
43039;BME280;62252;50.668;19.530;2022-11-15T14:33:29;97724.56;;;7.78;100.00
43039;BME280;62252;50.668;19.530;2022-11-15T14:36:04;97722.41;;;7.85;100.00
43039;BME280;62252;50.668;19.530;2022-11-15T14:38:38;97717.13;;;7.71;100.00
43039;BME280;62252;50.668;19.530;2022-11-15T14:41:18;97723.13;;;7.57;100.00
43039;BME280;62252;50.668;19.530;2022-11-15T14:43:53;97720.34;;;7.45;100.00
43039;BME280;62252;50.668;19.530;2022-11-15T14:46:26;97721.19;;;7.45;100.00
43039;BME280;62252;50.668;19.530;2022-11-15T14:49:04;97718.34;;;7.50;100.00
43039;BME280;62252;50.668;19.530;2022-11-15T14:51:38;97721.03;;;7.48;100.00
43039;BME280;62252;50.668;19.530;2022-11-15T14:54:12;97714.00;;;7.80;100.00